sensor_id;sensor_type;location;lat;lon;timestamp;temperature;humidity
23813;DHT22;12087;45.190;5.688;2024-01-25T00:02:55;9.00;99.90
23813;DHT22;12087;45.190;5.688;2024-01-25T00:08:17;8.90;99.90
23813;DHT22;12087;45.190;5.688;2024-01-25T00:13:39;8.90;99.90
23813;DHT22;12087;45.190;5.688;2024-01-25T00:19:03;8.80;99.90
23813;DHT22;12087;45.190;5.688;2024-01-25T00:24:26;8.80;99.90
23813;DHT22;12087;45.190;5.688;2024-01-25T00:29:48;8.90;99.90
23813;DHT22;12087;45.190;5.688;2024-01-25T00:35:14;8.80;99.90
23813;DHT22;12087;45.190;5.688;2024-01-25T00:40:37;8.90;99.90
23813;DHT22;12087;45.190;5.688;2024-01-25T00:45:59;8.80;99.90
23813;DHT22;12087;45.190;5.688;2024-01-25T00:51:24;8.80;99.90
23813;DHT22;12087;45.190;5.688;2024-01-25T00:56:46;8.80;99.90
23813;DHT22;12087;45.190;5.688;2024-01-25T01:02:12;8.70;99.90
23813;DHT22;12087;45.190;5.688;2024-01-25T01:07:37;8.70;99.90
23813;DHT22;12087;45.190;5.688;2024-01-25T01:13:00;8.70;99.90
23813;DHT22;12087;45.190;5.688;2024-01-25T01:18:22;8.70;99.90
23813;DHT22;12087;45.190;5.688;2024-01-25T01:23:46;8.70;99.90
23813;DHT22;12087;45.190;5.688;2024-01-25T01:29:08;8.70;99.90
23813;DHT22;12087;45.190;5.688;2024-01-25T01:34:31;8.70;99.90
23813;DHT22;12087;45.190;5.688;2024-01-25T01:39:54;8.70;99.90
23813;DHT22;12087;45.190;5.688;2024-01-25T01:45:17;8.70;99.90
23813;DHT22;12087;45.190;5.688;2024-01-25T01:50:40;8.70;99.90
23813;DHT22;12087;45.190;5.688;2024-01-25T01:56:05;8.70;99.90
23813;DHT22;12087;45.190;5.688;2024-01-25T02:01:29;8.70;99.90
23813;DHT22;12087;45.190;5.688;2024-01-25T02:06:51;8.70;99.90
23813;DHT22;12087;45.190;5.688;2024-01-25T02:12:17;8.70;99.90
23813;DHT22;12087;45.190;5.688;2024-01-25T02:17:39;8.80;99.90
23813;DHT22;12087;45.190;5.688;2024-01-25T02:23:03;8.80;99.90
23813;DHT22;12087;45.190;5.688;2024-01-25T02:28:26;8.80;99.90
23813;DHT22;12087;45.190;5.688;2024-01-25T02:33:48;8.80;99.90
23813;DHT22;12087;45.190;5.688;2024-01-25T02:39:12;8.80;99.90
23813;DHT22;12087;45.190;5.688;2024-01-25T02:44:34;8.80;99.90
23813;DHT22;12087;45.190;5.688;2024-01-25T02:49:56;8.90;99.90
23813;DHT22;12087;45.190;5.688;2024-01-25T02:55:20;8.90;99.90
23813;DHT22;12087;45.190;5.688;2024-01-25T03:00:43;8.90;99.90
23813;DHT22;12087;45.190;5.688;2024-01-25T03:06:06;8.90;99.90
23813;DHT22;12087;45.190;5.688;2024-01-25T03:11:31;8.90;99.90
23813;DHT22;12087;45.190;5.688;2024-01-25T03:16:53;9.00;99.90
23813;DHT22;12087;45.190;5.688;2024-01-25T03:22:15;8.90;99.90
23813;DHT22;12087;45.190;5.688;2024-01-25T03:27:39;9.00;99.90
23813;DHT22;12087;45.190;5.688;2024-01-25T03:33:01;9.00;99.90
23813;DHT22;12087;45.190;5.688;2024-01-25T03:38:23;9.10;99.90
23813;DHT22;12087;45.190;5.688;2024-01-25T03:43:48;9.10;99.90
23813;DHT22;12087;45.190;5.688;2024-01-25T03:49:10;9.10;99.90
23813;DHT22;12087;45.190;5.688;2024-01-25T03:54:32;9.20;99.90
23813;DHT22;12087;45.190;5.688;2024-01-25T03:59:56;9.20;99.90
23813;DHT22;12087;45.190;5.688;2024-01-25T04:05:18;9.20;99.90
23813;DHT22;12087;45.190;5.688;2024-01-25T04:10:41;9.20;99.90
23813;DHT22;12087;45.190;5.688;2024-01-25T04:16:05;9.20;99.90
23813;DHT22;12087;45.190;5.688;2024-01-25T04:21:28;9.20;99.90
23813;DHT22;12087;45.190;5.688;2024-01-25T04:26:50;9.20;99.90
23813;DHT22;12087;45.190;5.688;2024-01-25T04:32:14;9.30;99.90
23813;DHT22;12087;45.190;5.688;2024-01-25T04:37:37;9.30;99.90
23813;DHT22;12087;45.190;5.688;2024-01-25T04:42:59;9.30;99.90
23813;DHT22;12087;45.190;5.688;2024-01-25T04:48:22;9.30;99.90
23813;DHT22;12087;45.190;5.688;2024-01-25T04:53:44;9.30;99.90
23813;DHT22;12087;45.190;5.688;2024-01-25T04:59:07;9.30;99.90
23813;DHT22;12087;45.190;5.688;2024-01-25T05:04:30;9.30;99.90
23813;DHT22;12087;45.190;5.688;2024-01-25T05:09:52;9.20;99.90
23813;DHT22;12087;45.190;5.688;2024-01-25T05:15:15;9.20;99.90
23813;DHT22;12087;45.190;5.688;2024-01-25T05:20:39;9.20;99.90
23813;DHT22;12087;45.190;5.688;2024-01-25T05:26:01;9.30;99.90
23813;DHT22;12087;45.190;5.688;2024-01-25T05:31:23;9.30;99.90
23813;DHT22;12087;45.190;5.688;2024-01-25T05:36:47;9.30;99.90
23813;DHT22;12087;45.190;5.688;2024-01-25T05:42:10;9.30;99.90
23813;DHT22;12087;45.190;5.688;2024-01-25T05:47:32;9.30;99.90
23813;DHT22;12087;45.190;5.688;2024-01-25T05:52:57;9.30;99.90
23813;DHT22;12087;45.190;5.688;2024-01-25T05:58:20;9.20;99.90
23813;DHT22;12087;45.190;5.688;2024-01-25T06:03:42;9.20;99.90
23813;DHT22;12087;45.190;5.688;2024-01-25T06:09:05;9.20;99.90
23813;DHT22;12087;45.190;5.688;2024-01-25T06:14:28;9.20;99.90
23813;DHT22;12087;45.190;5.688;2024-01-25T06:19:50;9.20;99.90
23813;DHT22;12087;45.190;5.688;2024-01-25T06:25:14;9.20;99.90
23813;DHT22;12087;45.190;5.688;2024-01-25T06:30:36;9.10;99.90
23813;DHT22;12087;45.190;5.688;2024-01-25T06:36:00;9.10;99.90
23813;DHT22;12087;45.190;5.688;2024-01-25T06:41:27;9.10;99.90
23813;DHT22;12087;45.190;5.688;2024-01-25T06:46:49;9.10;99.90
23813;DHT22;12087;45.190;5.688;2024-01-25T06:52:11;9.00;99.90
23813;DHT22;12087;45.190;5.688;2024-01-25T06:57:35;9.00;99.90
23813;DHT22;12087;45.190;5.688;2024-01-25T07:02:58;9.00;99.90
23813;DHT22;12087;45.190;5.688;2024-01-25T07:08:20;9.00;99.90
23813;DHT22;12087;45.190;5.688;2024-01-25T07:13:46;9.00;99.90
23813;DHT22;12087;45.190;5.688;2024-01-25T07:19:08;9.00;99.90
23813;DHT22;12087;45.190;5.688;2024-01-25T07:24:31;9.10;99.90
23813;DHT22;12087;45.190;5.688;2024-01-25T07:29:54;9.00;99.90
23813;DHT22;12087;45.190;5.688;2024-01-25T07:35:16;9.10;99.90
23813;DHT22;12087;45.190;5.688;2024-01-25T07:40:39;9.10;99.90
23813;DHT22;12087;45.190;5.688;2024-01-25T07:46:03;9.20;99.90
23813;DHT22;12087;45.190;5.688;2024-01-25T07:51:25;9.20;99.90
23813;DHT22;12087;45.190;5.688;2024-01-25T07:56:49;9.20;99.90
23813;DHT22;12087;45.190;5.688;2024-01-25T08:02:12;9.20;99.90
23813;DHT22;12087;45.190;5.688;2024-01-25T08:07:36;9.20;99.90
23813;DHT22;12087;45.190;5.688;2024-01-25T08:12:58;9.20;99.90
23813;DHT22;12087;45.190;5.688;2024-01-25T08:18:22;9.30;99.90
23813;DHT22;12087;45.190;5.688;2024-01-25T08:23:44;9.30;99.90
23813;DHT22;12087;45.190;5.688;2024-01-25T08:29:06;9.30;99.90
23813;DHT22;12087;45.190;5.688;2024-01-25T08:34:30;9.30;99.90
23813;DHT22;12087;45.190;5.688;2024-01-25T08:39:52;9.40;99.90
23813;DHT22;12087;45.190;5.688;2024-01-25T08:45:14;9.40;99.90
23813;DHT22;12087;45.190;5.688;2024-01-25T08:50:38;9.40;99.90
23813;DHT22;12087;45.190;5.688;2024-01-25T08:56:01;9.50;99.90
23813;DHT22;12087;45.190;5.688;2024-01-25T09:01:23;9.60;99.90
23813;DHT22;12087;45.190;5.688;2024-01-25T09:06:47;9.60;99.90
23813;DHT22;12087;45.190;5.688;2024-01-25T09:12:09;9.70;99.90
23813;DHT22;12087;45.190;5.688;2024-01-25T09:17:32;9.80;99.90
23813;DHT22;12087;45.190;5.688;2024-01-25T09:22:55;9.90;99.90
23813;DHT22;12087;45.190;5.688;2024-01-25T09:28:18;9.90;99.90
23813;DHT22;12087;45.190;5.688;2024-01-25T09:33:40;10.00;99.90
23813;DHT22;12087;45.190;5.688;2024-01-25T09:39:03;10.10;99.90
23813;DHT22;12087;45.190;5.688;2024-01-25T09:44:26;10.20;99.90
23813;DHT22;12087;45.190;5.688;2024-01-25T09:49:48;10.20;99.90
23813;DHT22;12087;45.190;5.688;2024-01-25T09:55:12;10.30;99.90
23813;DHT22;12087;45.190;5.688;2024-01-25T10:00:36;10.40;99.90
23813;DHT22;12087;45.190;5.688;2024-01-25T10:05:59;10.40;99.90
23813;DHT22;12087;45.190;5.688;2024-01-25T10:11:23;10.50;99.90
23813;DHT22;12087;45.190;5.688;2024-01-25T10:16:46;10.60;99.90
23813;DHT22;12087;45.190;5.688;2024-01-25T10:22:09;10.70;99.90
23813;DHT22;12087;45.190;5.688;2024-01-25T10:27:35;10.80;99.90
23813;DHT22;12087;45.190;5.688;2024-01-25T10:32:58;10.80;99.90
23813;DHT22;12087;45.190;5.688;2024-01-25T10:38:21;11.00;99.90
23813;DHT22;12087;45.190;5.688;2024-01-25T10:43:45;11.00;99.90
23813;DHT22;12087;45.190;5.688;2024-01-25T10:49:07;11.00;99.90
23813;DHT22;12087;45.190;5.688;2024-01-25T10:54:30;11.10;99.90
23813;DHT22;12087;45.190;5.688;2024-01-25T10:59:53;11.20;99.90
23813;DHT22;12087;45.190;5.688;2024-01-25T11:05:16;11.30;99.90
23813;DHT22;12087;45.190;5.688;2024-01-25T11:10:39;11.40;99.90
23813;DHT22;12087;45.190;5.688;2024-01-25T11:16:13;11.50;99.90
23813;DHT22;12087;45.190;5.688;2024-01-25T11:21:41;11.60;99.90
23813;DHT22;12087;45.190;5.688;2024-01-25T11:27:04;11.70;99.90
23813;DHT22;12087;45.190;5.688;2024-01-25T11:32:28;11.80;99.90
23813;DHT22;12087;45.190;5.688;2024-01-25T11:37:50;11.90;99.90
23813;DHT22;12087;45.190;5.688;2024-01-25T11:43:13;12.10;99.90
23813;DHT22;12087;45.190;5.688;2024-01-25T11:48:40;12.20;99.90
23813;DHT22;12087;45.190;5.688;2024-01-25T11:54:03;12.30;99.90
23813;DHT22;12087;45.190;5.688;2024-01-25T11:59:27;12.30;99.90
23813;DHT22;12087;45.190;5.688;2024-01-25T12:04:51;12.30;99.90
23813;DHT22;12087;45.190;5.688;2024-01-25T12:10:16;12.30;99.90
23813;DHT22;12087;45.190;5.688;2024-01-25T12:15:40;12.40;99.90
23813;DHT22;12087;45.190;5.688;2024-01-25T12:21:05;12.40;99.90
23813;DHT22;12087;45.190;5.688;2024-01-25T12:26:27;12.50;99.90
23813;DHT22;12087;45.190;5.688;2024-01-25T12:31:49;12.60;99.90
23813;DHT22;12087;45.190;5.688;2024-01-25T12:37:13;12.70;99.90
23813;DHT22;12087;45.190;5.688;2024-01-25T12:42:35;12.80;99.90
23813;DHT22;12087;45.190;5.688;2024-01-25T12:47:57;12.90;99.90
23813;DHT22;12087;45.190;5.688;2024-01-25T12:53:21;13.00;99.90
23813;DHT22;12087;45.190;5.688;2024-01-25T12:58:43;13.10;99.90
23813;DHT22;12087;45.190;5.688;2024-01-25T13:04:05;13.20;99.90
23813;DHT22;12087;45.190;5.688;2024-01-25T13:09:29;13.20;99.90
23813;DHT22;12087;45.190;5.688;2024-01-25T13:14:54;13.30;99.90
23813;DHT22;12087;45.190;5.688;2024-01-25T13:20:16;13.30;99.90
23813;DHT22;12087;45.190;5.688;2024-01-25T13:25:40;13.40;99.90
23813;DHT22;12087;45.190;5.688;2024-01-25T13:31:02;13.60;99.90
23813;DHT22;12087;45.190;5.688;2024-01-25T13:36:24;13.80;99.90
23813;DHT22;12087;45.190;5.688;2024-01-25T13:41:47;13.90;99.90
23813;DHT22;12087;45.190;5.688;2024-01-25T13:47:10;14.10;99.90
23813;DHT22;12087;45.190;5.688;2024-01-25T13:52:33;14.30;99.90
23813;DHT22;12087;45.190;5.688;2024-01-25T13:57:56;14.50;99.90
23813;DHT22;12087;45.190;5.688;2024-01-25T14:03:18;14.60;99.90
23813;DHT22;12087;45.190;5.688;2024-01-25T14:08:41;14.70;99.90
23813;DHT22;12087;45.190;5.688;2024-01-25T14:14:04;14.80;99.90
23813;DHT22;12087;45.190;5.688;2024-01-25T14:19:26;15.00;99.90
23813;DHT22;12087;45.190;5.688;2024-01-25T14:24:48;15.00;99.90
23813;DHT22;12087;45.190;5.688;2024-01-25T14:30:13;15.00;99.90
23813;DHT22;12087;45.190;5.688;2024-01-25T14:35:35;15.00;99.90
23813;DHT22;12087;45.190;5.688;2024-01-25T14:40:57;15.00;99.90
23813;DHT22;12087;45.190;5.688;2024-01-25T14:46:21;14.80;99.90
23813;DHT22;12087;45.190;5.688;2024-01-25T14:51:43;14.60;99.90
23813;DHT22;12087;45.190;5.688;2024-01-25T14:57:05;14.30;99.90
23813;DHT22;12087;45.190;5.688;2024-01-25T15:02:29;14.10;99.90
23813;DHT22;12087;45.190;5.688;2024-01-25T15:07:51;14.00;99.90
23813;DHT22;12087;45.190;5.688;2024-01-25T15:13:14;13.90;99.90
23813;DHT22;12087;45.190;5.688;2024-01-25T15:18:37;13.80;99.90
23813;DHT22;12087;45.190;5.688;2024-01-25T15:24:00;13.70;99.90
23813;DHT22;12087;45.190;5.688;2024-01-25T15:29:22;13.70;99.90
23813;DHT22;12087;45.190;5.688;2024-01-25T15:34:45;13.60;99.90
23813;DHT22;12087;45.190;5.688;2024-01-25T15:40:09;13.60;99.90
23813;DHT22;12087;45.190;5.688;2024-01-25T15:45:33;13.50;99.90
23813;DHT22;12087;45.190;5.688;2024-01-25T15:50:56;13.50;99.90
23813;DHT22;12087;45.190;5.688;2024-01-25T15:56:19;13.30;99.90
23813;DHT22;12087;45.190;5.688;2024-01-25T16:01:41;13.30;99.90
23813;DHT22;12087;45.190;5.688;2024-01-25T16:07:05;13.20;99.90
23813;DHT22;12087;45.190;5.688;2024-01-25T16:12:28;13.10;99.90
23813;DHT22;12087;45.190;5.688;2024-01-25T16:17:50;12.90;99.90
23813;DHT22;12087;45.190;5.688;2024-01-25T16:23:14;12.80;99.90
23813;DHT22;12087;45.190;5.688;2024-01-25T16:28:36;12.70;99.90
23813;DHT22;12087;45.190;5.688;2024-01-25T16:33:58;12.50;99.90
23813;DHT22;12087;45.190;5.688;2024-01-25T16:39:22;12.50;99.90
23813;DHT22;12087;45.190;5.688;2024-01-25T16:44:44;12.40;99.90
23813;DHT22;12087;45.190;5.688;2024-01-25T16:50:07;12.30;99.90
23813;DHT22;12087;45.190;5.688;2024-01-25T16:55:31;12.20;99.90
23813;DHT22;12087;45.190;5.688;2024-01-25T17:00:54;12.20;99.90
23813;DHT22;12087;45.190;5.688;2024-01-25T17:06:16;12.10;99.90
23813;DHT22;12087;45.190;5.688;2024-01-25T17:11:40;12.00;99.90
23813;DHT22;12087;45.190;5.688;2024-01-25T17:17:03;11.80;99.90
23813;DHT22;12087;45.190;5.688;2024-01-25T17:22:27;11.70;99.90
23813;DHT22;12087;45.190;5.688;2024-01-25T17:27:50;11.60;99.90
23813;DHT22;12087;45.190;5.688;2024-01-25T17:33:12;11.60;99.90
23813;DHT22;12087;45.190;5.688;2024-01-25T17:38:34;11.50;99.90
23813;DHT22;12087;45.190;5.688;2024-01-25T17:43:59;11.40;99.90
23813;DHT22;12087;45.190;5.688;2024-01-25T17:49:21;11.30;99.90
23813;DHT22;12087;45.190;5.688;2024-01-25T17:54:43;11.20;99.90
23813;DHT22;12087;45.190;5.688;2024-01-25T18:00:08;11.10;99.90
23813;DHT22;12087;45.190;5.688;2024-01-25T18:05:31;11.00;99.90
23813;DHT22;12087;45.190;5.688;2024-01-25T18:10:53;10.90;99.90
23813;DHT22;12087;45.190;5.688;2024-01-25T18:16:17;10.70;99.90
23813;DHT22;12087;45.190;5.688;2024-01-25T18:21:40;10.60;99.90
23813;DHT22;12087;45.190;5.688;2024-01-25T18:27:04;10.50;99.90
23813;DHT22;12087;45.190;5.688;2024-01-25T18:32:28;10.40;99.90
23813;DHT22;12087;45.190;5.688;2024-01-25T18:37:50;10.40;99.90
23813;DHT22;12087;45.190;5.688;2024-01-25T18:43:12;10.30;99.90
23813;DHT22;12087;45.190;5.688;2024-01-25T18:48:37;10.30;99.90
23813;DHT22;12087;45.190;5.688;2024-01-25T18:54:00;10.20;99.90
23813;DHT22;12087;45.190;5.688;2024-01-25T18:59:22;10.10;99.90
23813;DHT22;12087;45.190;5.688;2024-01-25T19:04:47;10.10;99.90
23813;DHT22;12087;45.190;5.688;2024-01-25T19:10:10;10.10;99.90
23813;DHT22;12087;45.190;5.688;2024-01-25T19:15:32;10.10;99.90
23813;DHT22;12087;45.190;5.688;2024-01-25T19:20:55;10.10;99.90
23813;DHT22;12087;45.190;5.688;2024-01-25T19:26:17;10.10;99.90
23813;DHT22;12087;45.190;5.688;2024-01-25T19:31:41;10.10;99.90
23813;DHT22;12087;45.190;5.688;2024-01-25T19:37:05;10.00;99.90
23813;DHT22;12087;45.190;5.688;2024-01-25T19:42:27;9.90;99.90
23813;DHT22;12087;45.190;5.688;2024-01-25T19:47:50;9.80;99.90
23813;DHT22;12087;45.190;5.688;2024-01-25T19:53:13;9.90;99.90
23813;DHT22;12087;45.190;5.688;2024-01-25T19:58:36;9.90;99.90
23813;DHT22;12087;45.190;5.688;2024-01-25T20:03:59;9.90;99.90
23813;DHT22;12087;45.190;5.688;2024-01-25T20:09:23;9.90;99.90
23813;DHT22;12087;45.190;5.688;2024-01-25T20:14:45;9.90;99.90
23813;DHT22;12087;45.190;5.688;2024-01-25T20:20:11;9.90;99.90
23813;DHT22;12087;45.190;5.688;2024-01-25T20:25:34;9.90;99.90
23813;DHT22;12087;45.190;5.688;2024-01-25T20:30:57;9.90;99.90
23813;DHT22;12087;45.190;5.688;2024-01-25T20:36:19;9.90;99.90
23813;DHT22;12087;45.190;5.688;2024-01-25T20:41:42;9.80;99.90
23813;DHT22;12087;45.190;5.688;2024-01-25T20:47:05;9.80;99.90
23813;DHT22;12087;45.190;5.688;2024-01-25T20:52:27;9.90;99.90
23813;DHT22;12087;45.190;5.688;2024-01-25T20:57:51;9.90;99.90
23813;DHT22;12087;45.190;5.688;2024-01-25T21:03:13;9.90;99.90
23813;DHT22;12087;45.190;5.688;2024-01-25T21:08:36;9.90;99.90
23813;DHT22;12087;45.190;5.688;2024-01-25T21:14:01;10.00;99.90
23813;DHT22;12087;45.190;5.688;2024-01-25T21:19:23;10.00;99.90
23813;DHT22;12087;45.190;5.688;2024-01-25T21:24:45;10.00;99.90
23813;DHT22;12087;45.190;5.688;2024-01-25T21:30:11;9.90;99.90
23813;DHT22;12087;45.190;5.688;2024-01-25T21:35:33;9.90;99.90
23813;DHT22;12087;45.190;5.688;2024-01-25T21:40:55;9.90;99.90
23813;DHT22;12087;45.190;5.688;2024-01-25T21:46:20;9.80;99.90
23813;DHT22;12087;45.190;5.688;2024-01-25T21:51:42;9.80;99.90
23813;DHT22;12087;45.190;5.688;2024-01-25T21:57:05;9.70;99.90
23813;DHT22;12087;45.190;5.688;2024-01-25T22:02:29;9.70;99.90
23813;DHT22;12087;45.190;5.688;2024-01-25T22:07:51;9.60;99.90
23813;DHT22;12087;45.190;5.688;2024-01-25T22:13:13;9.60;99.90
23813;DHT22;12087;45.190;5.688;2024-01-25T22:18:38;9.60;99.90
23813;DHT22;12087;45.190;5.688;2024-01-25T22:24:00;9.50;99.90
23813;DHT22;12087;45.190;5.688;2024-01-25T22:29:22;9.40;99.90
23813;DHT22;12087;45.190;5.688;2024-01-25T22:34:46;9.30;99.90
23813;DHT22;12087;45.190;5.688;2024-01-25T22:40:09;9.20;99.90
23813;DHT22;12087;45.190;5.688;2024-01-25T22:45:32;9.10;99.90
23813;DHT22;12087;45.190;5.688;2024-01-25T22:50:56;9.10;99.90
23813;DHT22;12087;45.190;5.688;2024-01-25T22:56:23;9.10;99.90
23813;DHT22;12087;45.190;5.688;2024-01-25T23:01:45;9.00;99.90
23813;DHT22;12087;45.190;5.688;2024-01-25T23:07:09;9.00;99.90
23813;DHT22;12087;45.190;5.688;2024-01-25T23:12:31;8.90;99.90
23813;DHT22;12087;45.190;5.688;2024-01-25T23:17:54;8.80;99.90
23813;DHT22;12087;45.190;5.688;2024-01-25T23:23:17;8.80;99.90
23813;DHT22;12087;45.190;5.688;2024-01-25T23:28:40;8.80;99.90
23813;DHT22;12087;45.190;5.688;2024-01-25T23:34:02;8.90;99.90
23813;DHT22;12087;45.190;5.688;2024-01-25T23:39:26;8.80;99.90
23813;DHT22;12087;45.190;5.688;2024-01-25T23:44:48;8.80;99.90
23813;DHT22;12087;45.190;5.688;2024-01-25T23:50:10;8.80;99.90
23813;DHT22;12087;45.190;5.688;2024-01-25T23:55:34;8.90;99.90
